createdAt,value
2017-09-25T00:01:19.899Z,22.50
2017-09-25T00:04:31.449Z,27.48
2017-09-25T00:07:42.517Z,28.05
2017-09-25T00:10:53.817Z,33.10
2017-09-25T00:14:05.892Z,31.27
2017-09-25T00:17:16.669Z,26.48
2017-09-25T00:20:27.295Z,30.25
2017-09-25T00:23:37.883Z,27.58
2017-09-25T00:26:49.569Z,27.37
2017-09-25T00:30:00.288Z,24.73
2017-09-25T00:33:11.709Z,34.45
2017-09-25T00:36:23.607Z,33.42
2017-09-25T00:39:35.218Z,31.87
2017-09-25T00:42:45.889Z,34.28
2017-09-25T00:45:57.166Z,27.70
2017-09-25T00:49:08.096Z,31.80
2017-09-25T00:55:55.036Z,29.02
2017-09-25T00:59:06.154Z,33.80
2017-09-25T01:02:41.525Z,30.52
2017-09-25T01:06:03.967Z,28.12
2017-09-25T01:09:15.295Z,26.87
2017-09-25T01:12:27.200Z,30.85
2017-09-25T01:15:39.863Z,27.65
2017-09-25T01:18:50.942Z,27.50
2017-09-25T01:22:02.583Z,35.13
2017-09-25T01:25:15.481Z,27.65
2017-09-25T01:28:27.659Z,31.20
2017-09-25T01:31:39.155Z,31.67
2017-09-25T01:34:49.875Z,29.25
2017-09-25T01:38:01.198Z,30.85
2017-09-25T01:41:11.975Z,29.98
2017-09-25T01:44:22.987Z,32.78
2017-09-25T01:47:34.010Z,34.08
2017-09-25T01:50:45.011Z,30.88
2017-09-25T01:53:56.325Z,33.55
2017-09-25T01:57:08.377Z,31.67
2017-09-25T02:00:20.407Z,37.30
2017-09-25T02:03:32.570Z,30.00
2017-09-25T02:06:44.195Z,33.05
2017-09-25T02:09:55.153Z,32.13
2017-09-25T02:13:06.289Z,36.85
2017-09-25T02:16:17.448Z,31.95
2017-09-25T02:19:28.831Z,34.75
2017-09-25T02:22:40.650Z,37.35
2017-09-25T02:25:52.536Z,43.20
2017-09-25T02:29:03.576Z,35.10
2017-09-25T02:32:15.535Z,35.00
2017-09-25T02:35:27.598Z,31.00
2017-09-25T02:38:38.836Z,32.50
2017-09-25T02:41:50.129Z,30.90
2017-09-25T02:45:01.465Z,33.40
2017-09-25T02:48:13.112Z,29.83
2017-09-25T02:51:24.060Z,34.63
2017-09-25T02:54:34.885Z,30.37
2017-09-25T02:57:46.247Z,34.97
2017-09-25T03:00:57.455Z,32.28
2017-09-25T03:04:08.648Z,27.58
2017-09-25T03:07:20.198Z,26.37
2017-09-25T03:10:31.709Z,28.90
2017-09-25T03:13:43.320Z,27.55
2017-09-25T03:16:55.127Z,27.80
2017-09-25T03:20:06.606Z,31.08
2017-09-25T03:23:17.661Z,27.48
2017-09-25T03:26:28.174Z,32.03
2017-09-25T03:29:38.918Z,30.98
2017-09-25T03:32:48.796Z,28.67
2017-09-25T03:35:58.842Z,25.70
2017-09-25T03:39:09.459Z,30.37
2017-09-25T03:42:20.115Z,26.90
2017-09-25T03:45:30.388Z,30.33
2017-09-25T03:48:41.185Z,31.92
2017-09-25T03:51:52.048Z,26.48
2017-09-25T03:55:02.278Z,28.40
2017-09-25T03:58:12.916Z,30.70
2017-09-25T04:01:22.687Z,27.73
2017-09-25T04:04:32.606Z,31.98
2017-09-25T04:07:42.531Z,24.20
2017-09-25T04:10:53.176Z,33.85
2017-09-25T04:14:03.441Z,31.70
2017-09-25T04:17:14.170Z,26.95
2017-09-25T04:20:24.582Z,27.87
2017-09-25T04:23:35.041Z,27.50
2017-09-25T04:26:45.447Z,30.08
2017-09-25T04:29:55.676Z,27.40
2017-09-25T04:33:05.858Z,27.52
2017-09-25T04:36:16.195Z,30.17
2017-09-25T04:39:26.155Z,27.27
2017-09-25T04:42:36.022Z,29.45
2017-09-25T04:45:46.494Z,27.92
2017-09-25T04:48:56.963Z,23.50
2017-09-25T04:52:07.115Z,21.90
2017-09-25T04:55:17.511Z,21.87
2017-09-25T04:58:28.158Z,30.17
2017-09-25T05:01:40.212Z,21.37
2017-09-25T05:04:51.855Z,23.80
2017-09-25T05:08:01.707Z,24.33
2017-09-25T05:11:12.113Z,24.30
2017-09-25T05:14:22.277Z,24.30
2017-09-25T05:17:34.163Z,25.00
2017-09-25T05:20:44.393Z,23.92
2017-09-25T05:23:54.170Z,26.48
2017-09-25T05:27:04.128Z,29.00
2017-09-25T05:30:14.145Z,22.65
2017-09-25T05:33:24.896Z,22.90
2017-09-25T05:36:35.968Z,24.70
2017-09-25T05:39:45.962Z,24.83
2017-09-25T05:42:56.065Z,24.87
2017-09-25T05:46:07.002Z,24.37
2017-09-25T05:49:17.401Z,27.35
2017-09-25T05:52:28.115Z,27.55
2017-09-25T05:55:38.586Z,25.98
2017-09-25T05:58:49.418Z,27.10
2017-09-25T06:02:00.012Z,29.02
2017-09-25T06:05:10.136Z,28.23
2017-09-25T06:08:20.836Z,24.60
2017-09-25T06:11:30.983Z,30.95
2017-09-25T06:14:41.886Z,27.25
2017-09-25T06:17:51.983Z,29.50
2017-09-25T06:21:02.656Z,29.98
2017-09-25T06:24:13.307Z,32.72
2017-09-25T06:27:24.837Z,27.70
2017-09-25T06:30:34.911Z,28.58
2017-09-25T06:33:46.566Z,30.80
2017-09-25T06:36:56.616Z,33.78
2017-09-25T06:40:06.439Z,30.12
2017-09-25T06:43:16.540Z,31.00
2017-09-25T06:46:26.474Z,29.60
2017-09-25T06:49:37.088Z,29.58
2017-09-25T06:52:47.828Z,30.05
2017-09-25T06:55:57.921Z,29.73
2017-09-25T06:59:07.905Z,30.33
2017-09-25T07:02:18.118Z,29.50
2017-09-25T07:05:28.877Z,28.60
2017-09-25T07:08:40.369Z,25.55
2017-09-25T07:11:50.441Z,29.60
2017-09-25T07:15:00.340Z,28.50
2017-09-25T07:18:10.322Z,29.45
2017-09-25T07:21:20.884Z,34.28
2017-09-25T07:24:31.353Z,30.02
2017-09-25T07:27:41.323Z,25.75
2017-09-25T07:30:51.702Z,31.20
2017-09-25T07:34:02.352Z,26.00
2017-09-25T07:37:12.423Z,30.73
2017-09-25T07:40:23.184Z,30.40
2017-09-25T07:43:33.350Z,28.35
2017-09-25T07:46:43.550Z,32.47
2017-09-25T07:49:53.485Z,27.85
2017-09-25T07:53:04.353Z,30.08
2017-09-25T07:56:14.879Z,25.77
2017-09-25T07:59:26.370Z,28.73
2017-09-25T08:02:37.913Z,31.98
2017-09-25T08:05:49.271Z,22.17
2017-09-25T08:08:59.241Z,21.30
2017-09-25T08:12:09.203Z,27.65
2017-09-25T08:15:20.162Z,24.73
2017-09-25T08:18:31.278Z,27.05
2017-09-25T08:21:41.298Z,23.70
2017-09-25T08:24:51.718Z,28.85
2017-09-25T08:28:02.205Z,23.05
2017-09-25T08:31:12.366Z,25.60
2017-09-25T08:34:22.461Z,23.70
2017-09-25T08:37:33.127Z,23.77
2017-09-25T08:40:43.381Z,25.48
2017-09-25T08:43:53.627Z,23.27
2017-09-25T08:47:04.012Z,21.00
2017-09-25T08:50:15.510Z,23.05
2017-09-25T08:53:25.654Z,20.48
2017-09-25T08:56:35.709Z,24.30
2017-09-25T08:59:46.519Z,29.25
2017-09-25T09:02:57.162Z,25.10
2017-09-25T09:06:08.517Z,26.30
2017-09-25T09:09:18.736Z,21.35
2017-09-25T09:12:28.886Z,22.85
2017-09-25T09:15:40.781Z,22.52
2017-09-25T09:18:51.579Z,18.87
2017-09-25T09:22:02.033Z,17.25
2017-09-25T09:25:14.819Z,19.50
2017-09-25T09:28:25.169Z,16.62
2017-09-25T09:31:39.781Z,16.25
2017-09-25T09:34:51.610Z,15.30
2017-09-25T09:38:03.096Z,12.85
2017-09-25T09:41:13.819Z,16.17
2017-09-25T09:44:28.598Z,16.17
2017-09-25T09:47:40.596Z,16.67
2017-09-25T09:50:50.799Z,19.75
2017-09-25T09:54:01.561Z,16.98
2017-09-25T09:57:11.573Z,19.12
2017-09-25T10:00:22.747Z,16.33
2017-09-25T10:03:34.193Z,15.00
2017-09-25T10:06:45.127Z,19.15
2017-09-25T10:09:57.455Z,15.60
2017-09-25T10:13:07.683Z,16.10
2017-09-25T10:16:19.321Z,16.15
2017-09-25T10:19:30.021Z,17.73
2017-09-25T10:22:40.312Z,17.60
2017-09-25T10:25:50.321Z,15.63
2017-09-25T10:29:02.248Z,18.08
2017-09-25T10:32:12.223Z,15.55
2017-09-25T10:35:22.343Z,14.93
2017-09-25T10:38:32.775Z,17.42
2017-09-25T10:41:43.008Z,16.25
2017-09-25T10:44:53.246Z,16.00
2017-09-25T10:48:03.759Z,11.63
2017-09-25T10:51:14.688Z,13.02
2017-09-25T10:54:26.405Z,18.33
2017-09-25T10:57:37.192Z,12.60
2017-09-25T11:00:47.875Z,14.43
2017-09-25T11:03:57.976Z,14.40
2017-09-25T11:07:07.951Z,10.65
2017-09-25T11:10:19.007Z,13.52
2017-09-25T11:13:29.737Z,10.90
2017-09-25T11:16:40.514Z,15.50
2017-09-25T11:19:50.809Z,10.32
2017-09-25T11:23:00.904Z,13.30
2017-09-25T11:26:11.142Z,11.93
2017-09-25T11:29:21.051Z,15.63
2017-09-25T11:32:31.028Z,11.85
2017-09-25T11:35:41.136Z,11.43
2017-09-25T11:38:51.178Z,15.98
2017-09-25T11:42:01.999Z,12.20
2017-09-25T11:45:15.500Z,11.38
2017-09-25T11:48:26.147Z,10.77
2017-09-25T11:51:36.353Z,12.75
2017-09-25T11:54:46.564Z,11.75
2017-09-25T11:57:56.499Z,12.48
2017-09-25T12:01:06.873Z,9.50
2017-09-25T12:04:16.808Z,15.10
2017-09-25T12:07:26.955Z,13.68
2017-09-25T12:10:40.122Z,12.00
2017-09-25T12:13:50.581Z,11.55
2017-09-25T12:17:00.972Z,7.75
2017-09-25T12:20:11.725Z,10.55
2017-09-25T12:23:22.101Z,11.00
2017-09-25T12:26:32.634Z,11.77
2017-09-25T12:29:43.977Z,7.62
2017-09-25T12:32:54.098Z,8.43
2017-09-25T12:36:04.089Z,10.38
2017-09-25T12:39:15.580Z,6.37
2017-09-25T12:42:25.748Z,7.00
2017-09-25T12:45:39.162Z,7.22
2017-09-25T12:48:49.836Z,6.97
2017-09-25T12:51:59.674Z,9.88
2017-09-25T12:55:10.303Z,10.00
2017-09-25T12:58:20.798Z,5.07
2017-09-25T13:01:30.850Z,5.00
2017-09-25T13:04:42.009Z,6.37
2017-09-25T13:07:53.186Z,5.53
2017-09-25T13:11:03.488Z,5.30
2017-09-25T13:14:13.471Z,5.72
2017-09-25T13:17:23.435Z,5.93
2017-09-25T13:20:33.261Z,6.47
2017-09-25T13:23:44.403Z,7.82
2017-09-25T13:26:55.197Z,6.62
2017-09-25T13:30:05.527Z,7.05
2017-09-25T13:33:17.016Z,6.85
2017-09-25T13:36:27.195Z,7.80
2017-09-25T13:39:37.098Z,6.95
2017-09-25T13:42:47.471Z,7.15
2017-09-25T13:45:59.562Z,6.43
2017-09-25T13:49:10.427Z,5.87
2017-09-25T13:52:20.623Z,6.40
2017-09-25T13:55:30.347Z,7.45
2017-09-25T14:05:12.290Z,6.87
2017-09-25T14:08:23.010Z,6.78
2017-09-25T14:11:32.908Z,6.43
2017-09-25T14:14:42.983Z,8.05
2017-09-25T14:17:53.967Z,6.37
2017-09-25T14:21:04.806Z,8.65
2017-09-25T14:24:15.149Z,9.10
2017-09-25T14:27:24.995Z,7.10
2017-09-25T14:30:35.195Z,9.77
2017-09-25T14:33:45.269Z,6.90
2017-09-25T14:36:55.527Z,7.45
2017-09-25T14:40:05.600Z,9.35
2017-09-25T14:43:16.748Z,10.38
2017-09-25T14:46:26.892Z,7.72
2017-09-25T14:49:36.942Z,7.40
2017-09-25T14:52:47.859Z,8.50
2017-09-25T14:55:58.109Z,6.72
2017-09-25T14:59:08.248Z,7.55
2017-09-25T15:02:19.189Z,6.00
2017-09-25T15:05:29.160Z,6.93
2017-09-25T15:08:39.156Z,6.30
2017-09-25T15:11:49.127Z,7.60
2017-09-25T15:14:59.114Z,7.05
2017-09-25T15:18:09.223Z,7.82
2017-09-25T15:21:19.865Z,8.18
2017-09-25T15:24:30.045Z,7.62
2017-09-25T15:27:40.401Z,12.48
2017-09-25T15:30:50.363Z,11.32
2017-09-25T15:34:00.757Z,8.57
2017-09-25T15:37:10.653Z,9.05
2017-09-25T15:40:22.062Z,11.27
2017-09-25T15:43:32.750Z,9.63
2017-09-25T15:46:44.920Z,10.50
2017-09-25T15:49:55.788Z,9.10
2017-09-25T15:53:06.160Z,8.55
2017-09-25T15:56:16.308Z,8.57
2017-09-25T15:59:27.195Z,12.27
2017-09-25T16:02:37.554Z,21.50
2017-09-25T16:05:48.230Z,12.93
2017-09-25T16:08:58.503Z,8.90
2017-09-25T16:12:08.717Z,8.85
2017-09-25T16:15:19.878Z,8.75
2017-09-25T16:18:30.633Z,7.28
2017-09-25T16:21:40.991Z,6.72
2017-09-25T16:24:51.882Z,8.15
2017-09-25T16:28:02.260Z,7.55
2017-09-25T16:31:12.553Z,16.80
2017-09-25T16:34:23.056Z,10.45
2017-09-25T16:37:34.182Z,11.20
2017-09-25T16:40:44.279Z,14.65
2017-09-25T16:43:54.642Z,11.77
2017-09-25T16:47:04.775Z,13.13
2017-09-25T16:50:14.834Z,15.73
2017-09-25T16:53:26.218Z,12.75
2017-09-25T16:56:36.954Z,11.77
2017-09-25T16:59:47.219Z,11.18
2017-09-25T17:02:57.692Z,11.15
2017-09-25T17:06:07.810Z,9.50
2017-09-25T17:09:18.351Z,12.23
2017-09-25T17:12:28.554Z,10.25
2017-09-25T17:15:39.282Z,14.45
2017-09-25T17:18:50.012Z,16.80
2017-09-25T17:22:00.286Z,11.63
2017-09-25T17:25:11.362Z,13.10
2017-09-25T17:28:22.852Z,14.87
2017-09-25T17:31:33.058Z,14.30
2017-09-25T17:34:43.021Z,12.70
2017-09-25T17:37:53.168Z,11.23
2017-09-25T17:41:03.787Z,11.68
2017-09-25T17:44:13.821Z,10.30
2017-09-25T17:47:23.752Z,12.52
2017-09-25T17:50:33.710Z,13.45
2017-09-25T17:53:44.176Z,10.63
2017-09-25T17:56:54.363Z,13.25
2017-09-25T18:00:05.658Z,11.02
2017-09-25T18:03:15.891Z,9.48
2017-09-25T18:06:26.088Z,13.80
2017-09-25T18:09:36.004Z,9.57
2017-09-25T18:12:46.901Z,13.43
2017-09-25T18:15:58.697Z,11.35
2017-09-25T18:19:08.890Z,11.75
2017-09-25T18:22:18.987Z,11.68
2017-09-25T18:25:29.507Z,10.70
2017-09-25T18:28:40.316Z,11.25
2017-09-25T18:31:50.343Z,12.32
2017-09-25T18:35:00.433Z,10.40
2017-09-25T18:38:10.329Z,13.52
2017-09-25T18:41:21.113Z,12.20
2017-09-25T18:44:31.908Z,12.85
2017-09-25T18:47:41.933Z,9.57
2017-09-25T18:50:51.968Z,10.80
2017-09-25T18:54:03.476Z,13.82
2017-09-25T18:57:14.221Z,13.32
2017-09-25T19:00:24.507Z,12.48
2017-09-25T19:03:34.819Z,11.02
2017-09-25T19:06:45.815Z,12.13
2017-09-25T19:09:56.385Z,11.73
2017-09-25T19:13:06.814Z,16.80
2017-09-25T19:16:16.866Z,14.13
2017-09-25T19:19:26.867Z,14.32
2017-09-25T19:22:37.495Z,17.65
2017-09-25T19:25:47.702Z,23.50
2017-09-25T19:28:58.512Z,14.75
2017-09-25T19:32:08.607Z,15.48
2017-09-25T19:35:19.198Z,13.35
2017-09-25T19:38:29.101Z,14.75
2017-09-25T19:41:39.648Z,13.98
2017-09-25T19:44:49.684Z,13.45
2017-09-25T19:51:41.679Z,14.57
2017-09-25T19:54:53.094Z,15.10
2017-09-25T20:01:42.348Z,14.87
2017-09-25T20:04:52.670Z,14.25
2017-09-25T20:08:02.670Z,14.87
2017-09-25T20:11:13.352Z,12.18
2017-09-25T20:18:08.215Z,10.07
2017-09-25T20:21:19.693Z,12.10
2017-09-25T20:24:30.381Z,11.52
2017-09-25T20:27:40.718Z,12.07
2017-09-25T20:30:50.535Z,13.85
2017-09-25T20:34:00.513Z,12.05
2017-09-25T20:37:11.219Z,14.35
2017-09-25T20:40:23.007Z,13.20
2017-09-25T20:43:35.782Z,11.57
2017-09-25T20:46:45.815Z,12.25
2017-09-25T20:49:56.409Z,13.93
2017-09-25T20:53:07.774Z,13.82
2017-09-25T20:56:17.678Z,14.60
2017-09-25T20:59:27.997Z,13.27
2017-09-25T21:02:38.600Z,14.27
2017-09-25T21:05:48.734Z,15.98
2017-09-25T21:08:58.920Z,13.95
2017-09-25T21:12:09.631Z,15.18
2017-09-25T21:15:19.974Z,14.13
2017-09-25T21:18:30.367Z,16.27
2017-09-25T21:21:40.098Z,13.88
2017-09-25T21:24:50.086Z,15.55
2017-09-25T21:28:00.739Z,15.85
2017-09-25T21:31:11.115Z,16.30
2017-09-25T21:34:20.944Z,14.75
2017-09-25T21:37:30.821Z,14.55
2017-09-25T21:40:40.737Z,17.15
2017-09-25T21:43:50.715Z,19.20
2017-09-25T21:47:00.682Z,17.08
2017-09-25T21:50:11.014Z,13.88
2017-09-25T21:53:20.904Z,15.43
2017-09-25T21:56:31.129Z,14.02
2017-09-25T21:59:40.978Z,17.02
2017-09-25T22:02:51.218Z,12.68
2017-09-25T22:06:01.583Z,17.10
2017-09-25T22:09:12.439Z,15.95
2017-09-25T22:12:22.484Z,18.37
2017-09-25T22:15:32.425Z,16.60
2017-09-25T22:18:43.074Z,16.80
2017-09-25T22:21:53.824Z,17.90
2017-09-25T22:25:04.506Z,16.20
2017-09-25T22:28:14.721Z,15.90
2017-09-25T22:31:24.727Z,14.87
2017-09-25T22:34:34.999Z,18.75
2017-09-25T22:37:45.537Z,15.82
2017-09-25T22:40:55.729Z,17.27
2017-09-25T22:44:05.594Z,15.88
2017-09-25T22:47:15.467Z,16.73
2017-09-25T22:50:25.489Z,17.58
2017-09-25T22:53:35.440Z,16.27
2017-09-25T22:56:45.407Z,16.65
2017-09-25T22:59:55.052Z,16.10
2017-09-25T23:03:05.148Z,19.55
2017-09-25T23:06:15.411Z,14.38
2017-09-25T23:09:26.116Z,17.10
2017-09-25T23:12:36.231Z,15.85
2017-09-25T23:15:46.371Z,15.10
2017-09-25T23:18:56.228Z,16.30
2017-09-25T23:22:07.029Z,16.52
2017-09-25T23:25:18.538Z,14.80
2017-09-25T23:28:29.089Z,14.73
2017-09-25T23:31:57.232Z,16.27
2017-09-25T23:35:07.464Z,16.75
2017-09-25T23:38:18.938Z,14.52
2017-09-25T23:41:28.897Z,16.25
2017-09-25T23:44:39.587Z,14.80
2017-09-25T23:47:49.924Z,17.17
2017-09-25T23:51:00.654Z,16.52
2017-09-25T23:54:11.013Z,20.30
2017-09-25T23:57:21.755Z,15.13
